Tokuyo Maru No.15 — JD2184 — position and weather

sailwx.info

Track history (hours):
 
Tides and Currents Weather Stations Pressure Air Temp Water Temp Dewpoint Dewpoint Depression Visibility Wind Speed Wind Dir Waves Ship Positions

Tokuyo Maru No.15

Last reported at 2015-May-03 15:33 UTC. Time now 2015-May-03 15:53 UTC.
Position N 35°55' E 140°46'.

Length 66 m; draft 4.5 m.

Type: Tanker. MMSI: 431402034.

Date/timePositionNaut miles runAvg speedWind from/ knotsBaromVisibWave heightAir tempDewpointWater temp
2015-May-03 15:33N 35°55' E 140°46'1312.1
2015-May-03 14:30N 35°44' E 140°54'1412.0
2015-May-03 13:19N 35°32' E 140°46'1113.3
2015-May-03 12:28N 35°23' E 140°38'1313.1
2015-May-03 11:31N 35°13' E 140°28'1212.8
2015-May-03 10:32N 35°04' E 140°18'1312.5
2015-May-03 09:32N 34°58' E 140°04'1411.3
2015-May-03 08:16N 34°53' E 139°48'810.9
2015-May-03 07:33N 35°01' E 139°44'1211.7
2015-May-03 06:33N 35°12' E 139°46'1110.8
2015-May-03 05:34N 35°22' E 139°42'1111.0
2015-May-03 04:34N 35°30' E 139°52'8 8.3
2015-May-03 03:34N 35°31' E 140°03'0 0.0
2015-May-03 02:33N 35°31' E 140°03'0 0.0
2015-May-03 01:33N 35°31' E 140°03'0 0.0
2015-May-03 00:33N 35°31' E 140°03'2 2.1
2015-May-02 23:34N 35°31' E 140°00'5 5.3
2015-May-02 22:34N 35°29' E 139°54'0 0.0
2015-May-02 21:29N 35°29' E 139°54'0 0.0
2015-May-02 20:32N 35°29' E 139°54'0 0.0
2015-May-02 19:32N 35°29' E 139°54'2 2.1
2015-May-02 18:33N 35°28' E 139°52'1211.6
2015-May-02 17:33N 35°18' E 139°44'1111.0
2015-May-02 16:34N 35°08' E 139°44'1312.1
2015-May-02 15:29N 34°59' E 139°32'  
2015-Apr-30 09:15N 34°04' E 135°00'811.5
2015-Apr-30 08:32N 34°12' E 134°59'1310.2
2015-Apr-30 07:17N 34°24' E 135°05'811.3
2015-Apr-30 06:33N 34°29' E 135°13'1110.2
2015-Apr-30 05:31N 34°33' E 135°25'0 0.0
2015-Apr-29 23:33N 34°33' E 135°25'5 3.2
2015-Apr-29 22:07N 34°32' E 135°20'0 0.0
2015-Apr-29 21:31N 34°32' E 135°20'0 0.0
2015-Apr-29 20:31N 34°32' E 135°20'0 0.0
2015-Apr-29 19:31N 34°32' E 135°20'0 0.1
2015-Apr-29 18:31N 34°32' E 135°20'0 0.0
2015-Apr-29 16:31N 34°32' E 135°20'6 6.3
2015-Apr-29 15:33N 34°29' E 135°14'2210.9
2015-Apr-29 13:33N 34°10' E 134°60'228 9.9
2015-Apr-28 14:22N 35°01' E 139°30'911.7
2015-Apr-28 13:33N 35°07' E 139°40'1110.7
2015-Apr-28 12:33N 35°16' E 139°46'10 9.9
2015-Apr-28 11:33N 35°26' E 139°46'1211.6
2015-Apr-28 10:33N 35°31' E 139°58'4 3.6
2015-Apr-28 09:33N 35°31' E 140°03'0 0.0
2015-Apr-28 08:33N 35°31' E 140°03'0 0.0
2015-Apr-28 07:33N 35°31' E 140°03'0 0.0
2015-Apr-28 06:33N 35°31' E 140°03'0 0.0
2015-Apr-28 05:33N 35°31' E 140°03'0 0.0
2015-Apr-28 04:33N 35°31' E 140°03'5 5.2
2015-Apr-28 03:33N 35°29' E 139°56'1 1.3
2015-Apr-28 02:33N 35°29' E 139°55'0 0.0
2015-Apr-28 01:29N 35°29' E 139°55'0 0.1
2015-Apr-28 00:32N 35°29' E 139°55'0 0.0
2015-Apr-27 23:26N 35°29' E 139°55'5 5.7
2015-Apr-27 22:33N 35°27' E 139°49'1110.7
2015-Apr-27 21:33N 35°16' E 139°46'1111.1
2015-Apr-27 20:33N 35°06' E 139°42'  
Track history (hours):
 
Tides and Currents Weather Stations Pressure Air Temp Water Temp Dewpoint Dewpoint Depression Visibility Wind Speed Wind Dir Waves Ship Positions

Tokuyo Maru No.15

Last reported at 2015-May-03 15:33 UTC. Time now 2015-May-03 15:53 UTC.
Position N 35°55' E 140°46'.

Length 66 m; draft 4.5 m.

Type: Tanker. MMSI: 431402034.

Date/timePositionNaut miles runAvg speedWind from/ knotsBaromVisibWave heightAir tempDewpointWater temp
2015-May-03 15:33N 35°55' E 140°46'1312.1
2015-May-03 14:30N 35°44' E 140°54'1412.0
2015-May-03 13:19N 35°32' E 140°46'1113.3
2015-May-03 12:28N 35°23' E 140°38'1313.1
2015-May-03 11:31N 35°13' E 140°28'1212.8
2015-May-03 10:32N 35°04' E 140°18'1312.5
2015-May-03 09:32N 34°58' E 140°04'1411.3
2015-May-03 08:16N 34°53' E 139°48'810.9
2015-May-03 07:33N 35°01' E 139°44'1211.7
2015-May-03 06:33N 35°12' E 139°46'1110.8
2015-May-03 05:34N 35°22' E 139°42'1111.0
2015-May-03 04:34N 35°30' E 139°52'8 8.3
2015-May-03 03:34N 35°31' E 140°03'0 0.0
2015-May-03 02:33N 35°31' E 140°03'0 0.0
2015-May-03 01:33N 35°31' E 140°03'0 0.0
2015-May-03 00:33N 35°31' E 140°03'2 2.1
2015-May-02 23:34N 35°31' E 140°00'5 5.3
2015-May-02 22:34N 35°29' E 139°54'0 0.0
2015-May-02 21:29N 35°29' E 139°54'0 0.0
2015-May-02 20:32N 35°29' E 139°54'0 0.0
2015-May-02 19:32N 35°29' E 139°54'2 2.1
2015-May-02 18:33N 35°28' E 139°52'1211.6
2015-May-02 17:33N 35°18' E 139°44'1111.0
2015-May-02 16:34N 35°08' E 139°44'1312.1
2015-May-02 15:29N 34°59' E 139°32'  
2015-Apr-30 09:15N 34°04' E 135°00'811.5
2015-Apr-30 08:32N 34°12' E 134°59'1310.2
2015-Apr-30 07:17N 34°24' E 135°05'811.3
2015-Apr-30 06:33N 34°29' E 135°13'1110.2
2015-Apr-30 05:31N 34°33' E 135°25'0 0.0
2015-Apr-29 23:33N 34°33' E 135°25'5 3.2
2015-Apr-29 22:07N 34°32' E 135°20'0 0.0
2015-Apr-29 21:31N 34°32' E 135°20'0 0.0
2015-Apr-29 20:31N 34°32' E 135°20'0 0.0
2015-Apr-29 19:31N 34°32' E 135°20'0 0.1
2015-Apr-29 18:31N 34°32' E 135°20'0 0.0
2015-Apr-29 16:31N 34°32' E 135°20'6 6.3
2015-Apr-29 15:33N 34°29' E 135°14'2210.9
2015-Apr-29 13:33N 34°10' E 134°60'228 9.9
2015-Apr-28 14:22N 35°01' E 139°30'911.7
2015-Apr-28 13:33N 35°07' E 139°40'1110.7
2015-Apr-28 12:33N 35°16' E 139°46'10 9.9
2015-Apr-28 11:33N 35°26' E 139°46'1211.6
2015-Apr-28 10:33N 35°31' E 139°58'4 3.6
2015-Apr-28 09:33N 35°31' E 140°03'0 0.0
2015-Apr-28 08:33N 35°31' E 140°03'0 0.0
2015-Apr-28 07:33N 35°31' E 140°03'0 0.0
2015-Apr-28 06:33N 35°31' E 140°03'0 0.0
2015-Apr-28 05:33N 35°31' E 140°03'0 0.0
2015-Apr-28 04:33N 35°31' E 140°03'5 5.2
2015-Apr-28 03:33N 35°29' E 139°56'1 1.3
2015-Apr-28 02:33N 35°29' E 139°55'0 0.0
2015-Apr-28 01:29N 35°29' E 139°55'0 0.1
2015-Apr-28 00:32N 35°29' E 139°55'0 0.0
2015-Apr-27 23:26N 35°29' E 139°55'5 5.7
2015-Apr-27 22:33N 35°27' E 139°49'1110.7
2015-Apr-27 21:33N 35°16' E 139°46'1111.1
2015-Apr-27 20:33N 35°06' E 139°42'  

Dump ship's entire track history